Ana Sayfa
METAR-TAF:

METAR-TAF

Havaalanları :

Little Falls/Morrison County Airport (Lindbergh Field)

Little Falls, Minnesota, Amerika Birleşik Devletleri

Enlem: 45-57N, Boylam: 094-21W, yükseklik: 342 m

Güncel hava durumu gözlemi

Rapor saat 00:55 UTC de 35 dakika önce yapıldı.
Sakin rüzgar
Sıcaklık 25°C
Nem 79%
Basınç 1012 hPa
Görüş mesafesi: 16.1 km
4200 ft yükseklikte çok bulutlu

METAR: KLXL 140055Z AUTO 00000KT 10SM OVC042 25/21 A2989 RMK AO2

Saat: 20:30 (01:30 UTC)


TAF: eksik

4.000'den fazla havaalanı için hava durumu gözlemleri ve tahminleri (METAR ve TAF raporları).

Kullanılabilir istasyonlar harita üzerinde sarı ve kırmızı noktalarla gösterilir.

İstasyonun adını görmek için fareyi noktanın üzerinde gezdirin.

Sonrasında hava gözlem ve tahminlerini görmek için tıklayın.

Haritayı değiştirmek için: yaklaştırmak için siyah artı işaretli yeşil düğmeye ve uzaklaştırmak için de eksi işaretli düğmeye hızla tıklayın; bitişik haritalar için yeşil okları kullanın.


METAR-TAF: